»·PEaware :: N520PL KBLI-KTIW

N520PL :: KBLI-KTIW

FLIGHT INFORMATION

Flight Status: Arrived
Operator: Privately registered:
United States
More flights under this callsign
Pilot: Isaac A. (44038)
Aircraft: CESSNA 172 SKYHAWK
(C172)
More flights by this aircraft type
Origin: KBLI Bellingham Intl
United States
Destination: KTIW Tacoma Narrows
United States
More flights between these airports :: More routes between these airports
Route: KIENO6 DNHRT LEION
File this flight plan on PilotEdge
Remarks:
Altitude:
(Current/Filed)
6,000ft
Speed:
(Current/Filed)
100kts
Departed: 24-Jul-23 05:48 PM
Arrived: 24-Jul-23 06:52 PM
Distance/Time
Traveled:
91nm/1:04
Distance/Time
To Go:
Arrived

Flight Plot

Page will automatically refresh every two minutes.

Flight plan parsing failed; only flown route is shown


Map Options




Map Legend


Flown Route
Filed Route
Departure Airport
Arrival Airport
Navaid (VOR, NDB)
Fix

Horizontal Profiles

Position Reports

Time Latitude Longitude Heading Altitude Ground
Speed
24-Jul-23 17:14 48.793039 -122.533893 230 158ft 0kts
24-Jul-23 17:15 48.793039 -122.533893 230 158ft 0kts
24-Jul-23 17:16 48.793039 -122.533893 230 158ft 0kts
24-Jul-23 17:17 48.793034 -122.533902 229 158ft 0kts
24-Jul-23 17:18 48.793034 -122.533902 229 158ft 0kts
24-Jul-23 17:19 48.793034 -122.533902 229 158ft 0kts
24-Jul-23 17:20 48.793034 -122.533902 229 158ft 0kts
24-Jul-23 17:21 48.792634 -122.534248 185 159ft 4kts
24-Jul-23 17:22 48.791517 -122.535408 245 161ft 8kts
24-Jul-23 17:23 48.794184 -122.535820 359 159ft 14kts
24-Jul-23 17:24 48.796855 -122.535834 355 158ft 8kts
24-Jul-23 17:25 48.800174 -122.535816 6 152ft 10kts
24-Jul-23 17:26 48.801736 -122.536013 264 148ft 0kts
24-Jul-23 17:27 48.801736 -122.536013 264 148ft 0kts
24-Jul-23 17:28 48.801736 -122.536013 264 148ft 0kts
24-Jul-23 17:29 48.801736 -122.536013 264 148ft 0kts
24-Jul-23 17:30 48.801736 -122.536014 264 148ft 0kts
24-Jul-23 17:31 48.801736 -122.536013 264 148ft 0kts
24-Jul-23 17:32 48.801736 -122.536013 264 148ft 0kts
24-Jul-23 17:34 48.801736 -122.536013 264 148ft 0kts
24-Jul-23 17:35 48.801736 -122.536013 264 148ft 0kts
24-Jul-23 17:36 48.801736 -122.536013 264 148ft 0kts
24-Jul-23 17:37 48.801736 -122.536013 264 148ft 0kts
24-Jul-23 17:38 48.801736 -122.536013 264 148ft 0kts
24-Jul-23 17:39 48.801736 -122.536013 264 148ft 0kts
24-Jul-23 17:40 48.801736 -122.536013 264 148ft 0kts
24-Jul-23 17:41 48.801736 -122.536013 264 148ft 0kts
24-Jul-23 17:42 48.801736 -122.536013 264 148ft 0kts
24-Jul-23 17:43 48.801736 -122.536013 264 148ft 0kts
24-Jul-23 17:44 48.801736 -122.536013 264 148ft 0kts
24-Jul-23 17:45 48.801736 -122.536013 264 148ft 0kts
24-Jul-23 17:46 48.801736 -122.536013 264 148ft 0kts
24-Jul-23 17:47 48.801493 -122.537552 221 149ft 7kts
24-Jul-23 17:48 48.789253 -122.538113 182 394ft 83kts
24-Jul-23 17:49 48.767343 -122.537284 172 1134ft 82kts
24-Jul-23 17:50 48.746475 -122.547439 194 1919ft 78kts
24-Jul-23 17:51 48.727353 -122.562474 198 2669ft 72kts
24-Jul-23 17:52 48.710029 -122.575341 203 3383ft 67kts
24-Jul-23 17:53 48.691242 -122.576052 176 4027ft 69kts
24-Jul-23 17:54 48.672337 -122.576269 180 4706ft 67kts
24-Jul-23 17:55 48.653535 -122.579820 195 5252ft 75kts
24-Jul-23 17:56 48.633928 -122.587376 194 5951ft 70kts
24-Jul-23 17:56 48.615311 -122.592374 192 6136ft 86kts
24-Jul-23 17:58 48.585389 -122.604642 198 6090ft 99kts
24-Jul-23 17:59 48.558271 -122.611619 183 5971ft 105kts
24-Jul-23 18:00 48.532892 -122.620971 179 6071ft 92kts
24-Jul-23 18:00 48.511259 -122.620784 180 6057ft 94kts
24-Jul-23 18:01 48.485182 -122.619231 181 6113ft 93kts
24-Jul-23 18:02 48.459370 -122.619621 193 6131ft 92kts
24-Jul-23 18:04 48.428980 -122.619521 188 6132ft 94kts
24-Jul-23 18:04 48.407557 -122.624788 198 6137ft 92kts
24-Jul-23 18:05 48.381481 -122.630903 191 6093ft 99kts
24-Jul-23 18:06 48.354653 -122.633774 189 6146ft 92kts
24-Jul-23 18:07 48.327850 -122.636620 187 5996ft 95kts
24-Jul-23 18:08 48.301911 -122.639247 185 6040ft 93kts
24-Jul-23 18:09 48.276000 -122.641581 187 6040ft 93kts
24-Jul-23 18:10 48.250282 -122.644043 184 6098ft 92kts
24-Jul-23 18:11 48.224382 -122.646713 187 6082ft 96kts
24-Jul-23 18:12 48.198301 -122.649394 187 6150ft 93kts
24-Jul-23 18:13 48.171761 -122.650509 184 6067ft 95kts
24-Jul-23 18:14 48.145678 -122.653715 187 6142ft 88kts
24-Jul-23 18:15 48.118263 -122.654603 185 5954ft 93kts
24-Jul-23 18:16 48.092642 -122.659087 183 5915ft 94kts
24-Jul-23 18:17 48.067230 -122.664433 199 5916ft 89kts
24-Jul-23 18:18 48.042490 -122.665116 178 5933ft 91kts
24-Jul-23 18:19 48.017563 -122.652812 171 5932ft 93kts
24-Jul-23 18:20 47.991690 -122.645871 182 5937ft 93kts
24-Jul-23 18:21 47.965665 -122.643853 187 5948ft 93kts
24-Jul-23 18:22 47.940751 -122.644228 185 5944ft 86kts
24-Jul-23 18:23 47.915485 -122.641441 172 5956ft 96kts
24-Jul-23 18:24 47.888735 -122.636235 177 5977ft 95kts
24-Jul-23 18:25 47.863655 -122.633329 182 5950ft 74kts
24-Jul-23 18:26 47.837860 -122.627245 178 5172ft 90kts
24-Jul-23 18:27 47.811946 -122.626027 180 4242ft 91kts
24-Jul-23 18:28 47.787276 -122.625083 180 4016ft 89kts
24-Jul-23 18:29 47.763307 -122.619655 164 3964ft 86kts
24-Jul-23 18:30 47.741315 -122.614374 168 4068ft 78kts
24-Jul-23 18:31 47.720769 -122.603967 179 4162ft 77kts
24-Jul-23 18:32 47.698563 -122.596002 175 4029ft 80kts
24-Jul-23 18:33 47.675986 -122.586827 167 4068ft 85kts
24-Jul-23 18:34 47.653524 -122.576203 175 4126ft 84kts
24-Jul-23 18:35 47.629381 -122.570725 175 3995ft 91kts
24-Jul-23 18:36 47.604946 -122.567803 179 3939ft 90kts
24-Jul-23 18:37 47.580225 -122.560263 177 3939ft 87kts
24-Jul-23 18:38 47.555882 -122.553507 168 3974ft 86kts
24-Jul-23 18:39 47.532245 -122.545605 173 3961ft 86kts
24-Jul-23 18:40 47.508330 -122.538598 179 3984ft 84kts
24-Jul-23 18:41 47.484294 -122.536532 189 3496ft 87kts
24-Jul-23 18:42 47.460388 -122.542266 194 2889ft 88kts
24-Jul-23 18:43 47.436532 -122.546290 191 2311ft 85kts
24-Jul-23 18:44 47.414597 -122.551844 202 2014ft 75kts
24-Jul-23 18:45 47.393616 -122.554172 179 1981ft 77kts
24-Jul-23 18:46 47.372052 -122.557176 188 2086ft 76kts
24-Jul-23 18:47 47.349675 -122.559818 188 1879ft 78kts
24-Jul-23 18:48 47.327414 -122.566343 192 1421ft 81kts
24-Jul-23 18:49 47.304793 -122.571364 193 917ft 80kts
24-Jul-23 18:50 47.281924 -122.575300 193 514ft 70kts
24-Jul-23 18:51 47.270457 -122.577639 188 291ft 21kts
24-Jul-23 18:52 47.267833 -122.577091 88 286ft 0kts
24-Jul-23 18:53 47.267833 -122.577090 89 286ft 0kts
24-Jul-23 18:54 47.268932 -122.575762 39 283ft 6kts
24-Jul-23 18:55 47.269154 -122.575188 281 280ft 0kts
24-Jul-23 18:56 47.269154 -122.575187 281 280ft 0kts
24-Jul-23 18:57 47.269154 -122.575187 281 280ft 0kts

Navigation Log

Ident Type
Flight plan parsing failed, navigation log unavailable